Terminal Aerodrome Forecast
Issued by NWS Charleston, WV

Current Version | Previous Version | Graphics & Text | Print | Product List | Glossary On
Versions: 1 2 3 4 5 6 7 8 9 10 11 12 13 14 15 16 17 18 19 20 21 22 23 24
732
FTUS41 KRLX 161016 AAA
TAFPKB
TAF AMD
KPKB 161016Z 1610/1706 00000KT 3SM BR OVC050
     FM161200 00000KT 5SM BR OVC025
     FM161400 VRB02KT P6SM OVC014
     FM170000 VRB02KT P6SM BKN040
     FM170400 VRB03KT 5SM -SHRA OVC040=

USA.gov is the U.S. government's official web portal to all federal, state and local government web resources and services.